createdAt,value
2019-03-22T00:05:04.849Z,7.36
2019-03-22T00:15:10.029Z,7.51
2019-03-22T00:25:15.041Z,7.50
2019-03-22T00:35:21.065Z,7.60
2019-03-22T00:45:25.953Z,7.72
2019-03-22T00:55:30.945Z,7.85
2019-03-22T01:05:35.940Z,7.91
2019-03-22T01:15:40.953Z,8.04
2019-03-22T01:25:47.464Z,8.09
2019-03-22T01:35:52.404Z,8.15
2019-03-22T01:45:57.347Z,8.20
2019-03-22T01:56:02.437Z,8.30
2019-03-22T02:06:07.432Z,8.28
2019-03-22T02:16:12.368Z,8.19
2019-03-22T02:26:17.314Z,7.89
2019-03-22T02:36:22.225Z,7.73
2019-03-22T02:46:27.127Z,7.66
2019-03-22T02:56:32.307Z,7.31
2019-03-22T03:06:37.191Z,7.54
2019-03-22T03:16:42.178Z,7.31
2019-03-22T03:26:47.160Z,7.45
2019-03-22T03:36:52.056Z,7.46
2019-03-22T03:46:57.055Z,7.53
2019-03-22T03:57:02.106Z,7.57
2019-03-22T04:07:07.047Z,7.59
2019-03-22T04:17:12.059Z,7.67
2019-03-22T04:27:17.040Z,7.82
2019-03-22T04:37:22.018Z,7.92
2019-03-22T04:47:27.540Z,7.95
2019-03-22T04:57:33.669Z,7.99
2019-03-22T05:07:39.069Z,8.08
2019-03-22T05:17:45.599Z,8.14
2019-03-22T05:27:51.575Z,8.22
2019-03-22T05:37:56.692Z,8.30
2019-03-22T05:48:01.585Z,8.35
2019-03-22T05:58:06.688Z,8.32
2019-03-22T06:08:11.564Z,8.38
2019-03-22T06:18:17.589Z,8.46
2019-03-22T06:28:22.482Z,8.42
2019-03-22T06:38:27.462Z,8.38
2019-03-22T06:48:32.468Z,8.57
2019-03-22T06:58:37.454Z,8.97
2019-03-22T07:08:42.480Z,9.30
2019-03-22T07:18:47.460Z,10.43
2019-03-22T07:28:52.326Z,10.38
2019-03-22T07:38:57.226Z,9.92
2019-03-22T07:49:02.112Z,9.74
2019-03-22T07:59:09.757Z,10.04
2019-03-22T08:09:13.959Z,10.38
2019-03-22T08:19:18.873Z,10.16
2019-03-22T08:29:23.838Z,10.24
2019-03-22T08:39:28.833Z,11.06
2019-03-22T08:49:34.105Z,11.13
2019-03-22T08:59:39.251Z,10.66
2019-03-22T09:09:44.222Z,10.95
2019-03-22T09:19:51.142Z,11.06
2019-03-22T09:29:55.869Z,11.28
2019-03-22T09:40:00.866Z,11.45
2019-03-22T09:50:08.597Z,11.61
2019-03-22T10:00:16.448Z,11.44
2019-03-22T10:10:21.754Z,11.94
2019-03-22T10:20:26.854Z,11.68
2019-03-22T10:30:31.854Z,11.61
2019-03-22T10:40:36.850Z,11.79
2019-03-22T10:50:41.838Z,11.55
2019-03-22T11:00:46.933Z,11.26
2019-03-22T11:10:51.913Z,11.38
2019-03-22T11:21:04.725Z,11.66
2019-03-22T11:31:05.027Z,11.36
2019-03-22T11:41:11.204Z,11.60
2019-03-22T11:51:16.183Z,11.87
2019-03-22T12:01:22.500Z,11.63
2019-03-22T12:11:27.706Z,11.33
2019-03-22T12:21:33.244Z,11.30
2019-03-22T12:31:38.211Z,11.32
2019-03-22T12:41:43.095Z,11.62
2019-03-22T12:51:48.205Z,11.17
2019-03-22T13:01:53.296Z,11.30
2019-03-22T13:11:58.393Z,11.03
2019-03-22T13:22:03.328Z,11.08
2019-03-22T13:32:08.263Z,11.12
2019-03-22T13:42:13.160Z,10.73
2019-03-22T13:52:18.161Z,10.39
2019-03-22T14:02:23.251Z,10.48
2019-03-22T14:12:50.003Z,10.73
2019-03-22T14:22:55.397Z,10.94
2019-03-22T14:33:01.235Z,11.20
2019-03-22T14:43:08.357Z,11.41
2019-03-22T14:53:13.924Z,11.37
2019-03-22T15:03:25.367Z,11.52
2019-03-22T15:13:31.895Z,11.69
2019-03-22T15:24:03.114Z,11.73
2019-03-22T15:34:04.711Z,11.67
2019-03-22T15:44:09.637Z,11.05
2019-03-22T15:54:43.823Z,10.44
2019-03-22T16:04:54.923Z,10.22
2019-03-22T16:14:59.919Z,10.19
2019-03-22T16:25:08.119Z,9.94
2019-03-22T16:35:13.376Z,9.72
2019-03-22T16:45:21.335Z,9.63
2019-03-22T16:55:26.324Z,9.33
2019-03-22T17:05:31.652Z,9.05
2019-03-22T17:15:36.643Z,8.64
2019-03-22T17:25:41.710Z,8.07
2019-03-22T17:35:46.712Z,7.78
2019-03-22T17:45:51.599Z,7.20
2019-03-22T17:55:56.589Z,6.70
2019-03-22T18:06:01.735Z,6.43
2019-03-22T18:16:06.921Z,6.10
2019-03-22T18:26:12.444Z,5.82
2019-03-22T18:36:17.846Z,5.05
2019-03-22T18:46:24.569Z,5.36
2019-03-22T18:56:29.790Z,5.25
2019-03-22T19:06:35.134Z,5.62
2019-03-22T19:16:40.329Z,5.52
2019-03-22T19:26:45.599Z,5.75
2019-03-22T19:36:51.149Z,5.74
2019-03-22T19:46:56.184Z,5.72
2019-03-22T19:57:01.443Z,6.09
2019-03-22T20:07:06.704Z,6.29
2019-03-22T20:17:12.007Z,6.29
2019-03-22T20:27:17.255Z,6.25
2019-03-22T20:37:22.373Z,6.20
2019-03-22T20:47:27.623Z,5.93
2019-03-22T20:57:32.866Z,5.80
2019-03-22T21:07:38.087Z,5.89
2019-03-22T21:17:43.313Z,5.78
2019-03-22T21:27:48.722Z,5.51
2019-03-22T21:37:53.918Z,5.54
2019-03-22T21:47:59.292Z,5.75
2019-03-22T21:58:04.930Z,5.77
2019-03-22T22:08:10.032Z,5.71
2019-03-22T22:18:15.030Z,5.79
2019-03-22T22:28:20.247Z,5.51
2019-03-22T22:38:25.218Z,5.35
2019-03-22T22:48:30.201Z,5.05
2019-03-22T22:58:35.194Z,5.04
2019-03-22T23:08:41.415Z,4.96
2019-03-22T23:18:46.420Z,5.24
2019-03-22T23:29:16.093Z,6.11
2019-03-22T23:39:22.214Z,6.11
2019-03-22T23:49:27.204Z,5.44
2019-03-22T23:59:32.195Z,5.38
